Time;durP1;ratioP1;P1;durP2;ratioP2;P2;SDS_P1;SDS_P2;PMS_P1;PMS_P2;Temp;Humidity;BMP_temperature;BMP_pressure;BME280_temperature;BME280_humidity;BME280_pressure;Samples;Min_cycle;Max_cycle;Signal;HPM_P1;HPM_P2
2022/03/29 00:00:36;;;;;;;22.23;10.38;;;13.00;99.90;;;;;;4136211;28;20042;-64
2022/03/29 00:02:37;;;;;;;18.60;10.15;;;13.00;99.90;;;;;;4141971;28;20046;-64
2022/03/29 00:04:37;;;;;;;18.00;10.50;;;13.00;99.90;;;;;;4143530;28;20133;-63
2022/03/29 00:06:38;;;;;;;19.58;10.30;;;12.90;99.90;;;;;;4139831;28;20042;-64
2022/03/29 00:08:38;;;;;;;16.77;9.95;;;12.90;99.90;;;;;;4144248;28;20109;-66
2022/03/29 00:10:39;;;;;;;18.08;9.98;;;12.90;99.90;;;;;;4143798;28;20555;-65
2022/03/29 00:12:40;;;;;;;17.20;10.35;;;12.90;99.90;;;;;;4145184;28;20053;-64
2022/03/29 00:14:40;;;;;;;20.20;10.60;;;12.90;99.90;;;;;;4146984;28;20042;-64
2022/03/29 00:16:41;;;;;;;18.73;10.55;;;12.90;99.90;;;;;;4145125;28;20065;-64
2022/03/29 00:18:42;;;;;;;19.95;10.35;;;12.80;99.90;;;;;;4145157;28;20038;-64
2022/03/29 00:20:42;;;;;;;18.10;10.27;;;12.80;99.90;;;;;;4142946;28;20168;-65
2022/03/29 00:22:43;;;;;;;20.73;11.30;;;12.80;99.90;;;;;;4146563;28;20042;-64
2022/03/29 00:24:44;;;;;;;16.73;9.68;;;12.80;99.90;;;;;;4144053;28;20445;-64
2022/03/29 00:26:44;;;;;;;22.00;11.40;;;12.80;99.90;;;;;;4145514;28;20064;-65
2022/03/29 00:28:45;;;;;;;19.77;10.75;;;12.80;99.90;;;;;;4147220;28;20117;-64
2022/03/29 00:30:46;;;;;;;17.00;9.60;;;12.80;99.90;;;;;;4144243;28;20390;-64
2022/03/29 00:32:47;;;;;;;19.90;10.52;;;12.70;99.90;;;;;;4143508;28;20035;-64
2022/03/29 00:34:47;;;;;;;19.90;10.70;;;12.70;99.90;;;;;;4147042;28;20466;-64
2022/03/29 00:36:48;;;;;;;18.08;9.77;;;12.70;99.90;;;;;;4143731;28;20038;-64
2022/03/29 00:38:48;;;;;;;22.10;10.40;;;12.70;99.90;;;;;;4146917;28;20469;-64
2022/03/29 00:40:49;;;;;;;17.23;9.40;;;12.70;99.90;;;;;;4143217;28;20042;-64
2022/03/29 00:42:50;;;;;;;17.95;10.77;;;12.60;99.90;;;;;;4145720;28;20421;-64
2022/03/29 00:44:50;;;;;;;19.48;10.88;;;12.60;99.90;;;;;;4143847;28;20045;-64
2022/03/29 00:46:51;;;;;;;25.27;11.43;;;12.60;99.90;;;;;;4142890;28;20041;-64
2022/03/29 00:48:51;;;;;;;22.20;11.48;;;12.50;99.90;;;;;;4142514;28;20041;-64
2022/03/29 00:50:53;;;;;;;18.58;11.63;;;12.50;99.90;;;;;;4146104;28;20379;-64
2022/03/29 00:52:54;;;;;;;19.02;10.18;;;12.50;99.90;;;;;;4144854;28;20042;-64
2022/03/29 00:54:55;;;;;;;18.77;11.32;;;12.50;99.90;;;;;;4144270;28;20040;-64
2022/03/29 00:57:05;;;;;;;19.77;11.75;;;12.40;99.90;;;;;;4145576;28;20042;-64
2022/03/29 00:59:06;;;;;;;19.92;11.43;;;12.40;99.90;;;;;;4145376;28;20046;-63
2022/03/29 01:01:09;;;;;;;19.83;11.40;;;12.40;99.90;;;;;;4144040;28;20070;-63
2022/03/29 01:03:11;;;;;;;21.40;11.25;;;12.40;99.90;;;;;;4145764;28;20041;-64
2022/03/29 01:05:12;;;;;;;17.90;11.00;;;12.40;99.90;;;;;;4143537;28;20042;-65
2022/03/29 01:07:13;;;;;;;20.08;10.93;;;12.40;99.90;;;;;;4144396;28;20041;-65
2022/03/29 01:09:14;;;;;;;19.88;11.35;;;12.40;99.90;;;;;;4144305;28;20097;-65
2022/03/29 01:11:15;;;;;;;21.42;11.73;;;12.40;99.90;;;;;;4144170;28;20042;-64
2022/03/29 01:13:17;;;;;;;23.77;12.23;;;12.40;99.90;;;;;;4143373;28;20038;-64
2022/03/29 01:15:19;;;;;;;19.85;10.73;;;12.40;99.90;;;;;;4143632;28;20045;-65
2022/03/29 01:17:39;;;;;;;21.63;12.20;;;12.40;99.90;;;;;;4145451;28;20122;-64
2022/03/29 01:19:42;;;;;;;20.42;10.90;;;12.40;99.90;;;;;;4145647;28;20034;-65
2022/03/29 01:21:54;;;;;;;18.65;10.35;;;12.40;99.90;;;;;;4144954;28;20049;-64
2022/03/29 01:23:55;;;;;;;16.55;10.60;;;12.40;99.90;;;;;;4149806;28;20042;-63
2022/03/29 01:25:56;;;;;;;19.10;11.02;;;12.30;99.90;;;;;;4144575;28;20092;-64
2022/03/29 01:27:58;;;;;;;20.25;11.20;;;12.30;99.90;;;;;;4145211;28;20037;-63
2022/03/29 01:30:00;;;;;;;23.13;12.50;;;12.30;99.90;;;;;;4143836;28;20065;-63
2022/03/29 01:32:03;;;;;;;22.48;12.05;;;12.30;99.90;;;;;;4145686;28;20026;-64
2022/03/29 01:34:05;;;;;;;21.63;11.82;;;12.30;99.90;;;;;;4144698;28;20065;-64
2022/03/29 01:36:06;;;;;;;20.10;12.73;;;12.30;99.90;;;;;;4144192;28;20445;-64
2022/03/29 01:38:07;;;;;;;18.80;10.90;;;12.20;99.90;;;;;;4145787;28;20500;-64
2022/03/29 01:40:13;;;;;;;19.20;11.65;;;12.20;99.90;;;;;;4145072;28;20034;-65
2022/03/29 01:42:13;;;;;;;20.55;11.95;;;12.20;99.90;;;;;;4143836;28;20389;-65
2022/03/29 01:44:14;;;;;;;18.83;12.13;;;12.10;99.90;;;;;;4143376;28;20029;-65
2022/03/29 01:46:15;;;;;;;17.92;11.18;;;12.10;99.90;;;;;;4142202;28;20373;-64
2022/03/29 01:48:15;;;;;;;20.65;12.15;;;12.10;99.90;;;;;;4143959;28;20128;-64
2022/03/29 01:50:17;;;;;;;21.50;11.45;;;12.10;99.90;;;;;;4144855;28;20583;-64
2022/03/29 01:52:17;;;;;;;18.08;11.95;;;12.10;99.90;;;;;;4143881;28;20164;-64
2022/03/29 01:54:18;;;;;;;20.85;12.57;;;12.00;99.90;;;;;;4144923;28;20042;-64
2022/03/29 01:56:19;;;;;;;24.27;12.32;;;12.00;99.90;;;;;;4142764;28;20859;-64
2022/03/29 01:58:19;;;;;;;21.92;12.35;;;12.10;99.90;;;;;;4146300;28;20030;-64
2022/03/29 02:00:34;;;;;;;23.73;12.07;;;12.10;99.90;;;;;;4143288;28;20034;-63
2022/03/29 02:02:34;;;;;;;21.45;12.30;;;12.10;99.90;;;;;;4143731;28;20084;-63
2022/03/29 02:04:35;;;;;;;19.90;12.10;;;12.10;99.90;;;;;;4143914;28;20393;-64
2022/03/29 02:06:36;;;;;;;23.55;13.05;;;12.10;99.90;;;;;;4143145;28;20057;-63
2022/03/29 02:08:36;;;;;;;18.85;11.93;;;12.00;99.90;;;;;;4145591;28;20406;-63
2022/03/29 02:10:37;;;;;;;21.80;12.98;;;12.00;99.90;;;;;;4142300;28;20466;-64
2022/03/29 02:12:38;;;;;;;20.00;12.95;;;12.10;99.90;;;;;;4143679;28;20030;-64
2022/03/29 02:14:39;;;;;;;20.48;12.40;;;12.00;99.90;;;;;;4144228;28;20030;-64
2022/03/29 02:16:39;;;;;;;23.15;12.85;;;12.00;99.90;;;;;;4144822;28;20030;-64
2022/03/29 02:18:40;;;;;;;21.42;13.15;;;11.90;99.90;;;;;;4142429;28;20030;-65
2022/03/29 02:20:41;;;;;;;22.17;13.38;;;11.90;99.90;;;;;;4142398;28;20049;-64
2022/03/29 02:22:42;;;;;;;21.65;12.93;;;11.90;99.90;;;;;;4145433;28;20026;-64
2022/03/29 02:24:43;;;;;;;25.25;14.55;;;11.90;99.90;;;;;;4144609;28;20080;-63
2022/03/29 02:26:44;;;;;;;23.05;13.30;;;11.90;99.90;;;;;;4142660;28;20080;-65
2022/03/29 02:28:45;;;;;;;21.67;13.75;;;11.80;99.90;;;;;;4143343;28;20038;-64
2022/03/29 02:30:46;;;;;;;24.45;14.23;;;11.80;99.90;;;;;;4141855;28;20103;-64
2022/03/29 02:32:46;;;;;;;20.55;13.55;;;11.80;99.90;;;;;;4142808;28;20370;-64
2022/03/29 02:34:47;;;;;;;22.00;13.73;;;11.80;99.90;;;;;;4141750;28;20034;-64
2022/03/29 02:36:48;;;;;;;20.83;14.00;;;11.80;99.90;;;;;;4144666;28;20036;-64
2022/03/29 02:38:49;;;;;;;20.10;13.52;;;11.80;99.90;;;;;;4143710;28;20062;-64
2022/03/29 02:40:50;;;;;;;22.98;15.75;;;11.80;99.90;;;;;;4141530;28;20433;-64
2022/03/29 02:42:52;;;;;;;25.73;16.95;;;11.80;99.90;;;;;;4144069;28;20038;-64
2022/03/29 02:44:53;;;;;;;27.35;15.38;;;11.80;99.90;;;;;;4143385;28;20034;-64
2022/03/29 02:46:54;;;;;;;25.92;16.80;;;11.80;99.90;;;;;;4144297;28;20037;-64
2022/03/29 02:48:54;;;;;;;25.67;16.80;;;11.70;99.90;;;;;;4145181;28;20037;-64
2022/03/29 02:50:55;;;;;;;28.27;17.17;;;11.70;99.90;;;;;;4143246;28;20034;-64
2022/03/29 02:52:59;;;;;;;27.42;16.90;;;11.70;99.90;;;;;;4141996;28;20117;-63
2022/03/29 02:55:00;;;;;;;26.88;16.98;;;11.70;99.90;;;;;;4145363;28;20030;-64
2022/03/29 02:57:00;;;;;;;26.98;16.80;;;11.70;99.90;;;;;;4142780;28;20045;-64
2022/03/29 02:59:01;;;;;;;28.13;17.92;;;11.60;99.90;;;;;;4144547;28;20105;-64
2022/03/29 03:01:01;;;;;;;29.02;18.80;;;11.60;99.90;;;;;;4142513;28;20034;-64
2022/03/29 03:03:03;;;;;;;29.05;18.35;;;11.50;99.90;;;;;;4143830;28;20109;-63
2022/03/29 03:05:04;;;;;;;28.50;18.35;;;11.50;99.90;;;;;;4144692;28;20052;-64
2022/03/29 03:07:04;;;;;;;28.90;17.88;;;11.50;99.90;;;;;;4142704;28;20038;-64
2022/03/29 03:09:05;;;;;;;29.25;19.27;;;11.50;99.90;;;;;;4143998;28;20041;-63
2022/03/29 03:11:06;;;;;;;28.00;18.23;;;11.40;99.90;;;;;;4142459;28;20501;-64
2022/03/29 03:13:06;;;;;;;29.17;19.27;;;11.40;99.90;;;;;;4146199;28;20038;-64
2022/03/29 03:15:08;;;;;;;29.42;19.50;;;11.30;99.90;;;;;;4142759;28;20061;-64
2022/03/29 03:17:09;;;;;;;30.05;20.00;;;11.20;99.90;;;;;;4144850;28;20105;-64
2022/03/29 03:19:10;;;;;;;29.35;19.42;;;11.10;99.90;;;;;;4142991;28;20041;-63
2022/03/29 03:21:10;;;;;;;31.33;20.05;;;11.10;99.90;;;;;;4141034;28;20037;-66
2022/03/29 03:23:11;;;;;;;29.73;19.88;;;11.20;99.90;;;;;;4144337;28;20041;-64
2022/03/29 03:25:12;;;;;;;32.83;19.83;;;11.20;99.90;;;;;;4141103;28;20049;-64
2022/03/29 03:27:12;;;;;;;34.28;22.02;;;11.20;99.90;;;;;;4142104;28;20041;-64
2022/03/29 03:29:13;;;;;;;29.83;19.58;;;11.10;99.90;;;;;;4142949;28;20030;-64
2022/03/29 03:31:14;;;;;;;27.40;18.88;;;11.10;99.90;;;;;;4142495;28;20042;-64
2022/03/29 03:33:14;;;;;;;28.77;19.20;;;11.10;99.90;;;;;;4141212;28;20030;-64
2022/03/29 03:35:15;;;;;;;30.08;20.08;;;11.10;99.90;;;;;;4142289;28;20037;-64
2022/03/29 03:37:16;;;;;;;29.67;19.67;;;11.10;99.90;;;;;;4142970;28;20037;-64
2022/03/29 03:39:17;;;;;;;32.70;19.23;;;11.10;99.90;;;;;;4142819;28;20114;-64
2022/03/29 03:41:18;;;;;;;28.92;19.10;;;11.00;99.90;;;;;;4141991;28;20085;-64
2022/03/29 03:43:19;;;;;;;32.05;20.48;;;11.00;99.90;;;;;;4142848;28;20046;-64
2022/03/29 03:45:19;;;;;;;29.48;19.52;;;11.00;99.90;;;;;;4141956;28;20040;-64
2022/03/29 03:47:20;;;;;;;30.77;19.85;;;11.00;99.90;;;;;;4147362;28;20038;-64
2022/03/29 03:49:21;;;;;;;30.60;19.77;;;10.90;99.90;;;;;;4142004;28;20110;-64
2022/03/29 03:51:21;;;;;;;33.50;21.95;;;11.00;99.90;;;;;;4140093;28;20038;-63
2022/03/29 03:53:22;;;;;;;32.30;20.83;;;10.90;99.90;;;;;;4142447;28;20068;-64
2022/03/29 03:55:23;;;;;;;31.85;21.55;;;10.90;99.90;;;;;;4141588;28;20045;-64
2022/03/29 03:57:23;;;;;;;30.95;19.83;;;10.90;99.90;;;;;;4142465;28;20052;-64
2022/03/29 03:59:24;;;;;;;31.48;21.10;;;10.90;99.90;;;;;;4143197;28;20038;-64
2022/03/29 04:01:25;;;;;;;32.17;21.23;;;10.90;99.90;;;;;;4140632;28;20081;-64
2022/03/29 04:03:25;;;;;;;31.65;21.73;;;10.90;99.90;;;;;;4142671;28;20041;-64
2022/03/29 04:05:27;;;;;;;33.72;21.58;;;10.90;99.90;;;;;;4143293;28;20026;-64
2022/03/29 04:07:28;;;;;;;30.23;21.00;;;10.90;99.90;;;;;;4140790;28;20401;-64
2022/03/29 04:09:29;;;;;;;31.83;21.15;;;10.90;99.90;;;;;;4142380;28;20061;-64
2022/03/29 04:11:30;;;;;;;32.72;20.88;;;10.80;99.90;;;;;;4141129;28;20038;-64
2022/03/29 04:13:30;;;;;;;35.42;22.35;;;10.80;99.90;;;;;;4144065;28;20029;-64
2022/03/29 04:15:31;;;;;;;30.95;20.92;;;10.80;99.90;;;;;;4125013;28;20569;-64
2022/03/29 04:17:32;;;;;;;31.92;21.35;;;10.80;99.90;;;;;;4141752;28;20041;-64
2022/03/29 04:19:32;;;;;;;34.22;22.08;;;10.80;99.90;;;;;;4142704;28;20029;-63
2022/03/29 04:21:33;;;;;;;32.92;21.63;;;10.80;99.90;;;;;;4142502;28;20026;-64
2022/03/29 04:23:35;;;;;;;30.10;20.15;;;10.80;99.90;;;;;;4143706;28;20050;-64
2022/03/29 04:25:36;;;;;;;31.88;21.80;;;10.80;99.90;;;;;;4157324;28;20037;-64
2022/03/29 04:27:37;;;;;;;32.90;21.95;;;10.70;99.90;;;;;;4142129;28;20034;-64
2022/03/29 04:29:37;;;;;;;36.75;23.30;;;10.80;99.90;;;;;;4141758;28;20066;-64
2022/03/29 04:31:38;;;;;;;31.73;21.52;;;10.70;99.90;;;;;;4141620;28;20034;-64
2022/03/29 04:33:40;;;;;;;33.97;22.20;;;10.70;99.90;;;;;;4142706;28;20034;-64
2022/03/29 04:35:40;;;;;;;31.42;20.63;;;10.70;99.90;;;;;;4140481;28;20041;-64
2022/03/29 04:37:41;;;;;;;30.90;21.55;;;10.70;99.90;;;;;;4139606;28;20489;-65
2022/03/29 04:39:42;;;;;;;35.00;21.98;;;10.70;99.90;;;;;;4140042;28;20148;-65
2022/03/29 04:41:42;;;;;;;36.00;24.23;;;10.70;99.90;;;;;;4140122;28;20034;-64
2022/03/29 04:43:43;;;;;;;33.80;21.10;;;10.70;99.90;;;;;;4140089;28;20048;-64
2022/03/29 04:45:43;;;;;;;32.28;22.27;;;10.70;99.90;;;;;;4139134;28;20030;-64
2022/03/29 04:47:45;;;;;;;36.10;23.48;;;10.60;99.90;;;;;;4139811;28;20038;-64
2022/03/29 04:49:46;;;;;;;37.03;21.92;;;10.70;99.90;;;;;;4139410;28;20034;-64
2022/03/29 04:51:47;;;;;;;33.90;23.02;;;10.70;99.90;;;;;;4140072;28;20150;-64
2022/03/29 04:53:48;;;;;;;36.25;24.25;;;10.70;99.90;;;;;;4141303;28;20078;-64
2022/03/29 04:55:50;;;;;;;34.33;22.92;;;10.70;99.90;;;;;;4142394;28;20044;-64
2022/03/29 04:57:51;;;;;;;39.67;23.90;;;10.70;99.90;;;;;;4145225;28;20128;-64
2022/03/29 04:59:52;;;;;;;33.45;22.25;;;10.60;99.90;;;;;;4143085;28;20030;-64
2022/03/29 05:01:52;;;;;;;34.45;21.92;;;10.60;99.90;;;;;;4143076;28;20096;-64
2022/03/29 05:03:53;;;;;;;34.83;23.58;;;10.50;99.90;;;;;;4143002;28;20078;-63
2022/03/29 05:05:54;;;;;;;33.42;22.27;;;10.60;99.90;;;;;;4142621;28;20034;-63
2022/03/29 05:07:55;;;;;;;34.03;23.90;;;10.60;99.90;;;;;;4143384;28;20030;-63
2022/03/29 05:09:56;;;;;;;36.10;23.10;;;10.60;99.90;;;;;;4143840;28;20053;-64
2022/03/29 05:11:59;;;;;;;31.83;22.15;;;10.60;99.90;;;;;;4142773;28;20030;-64
2022/03/29 05:13:59;;;;;;;31.52;21.83;;;10.50;99.90;;;;;;4158020;28;20068;-64
2022/03/29 05:16:01;;;;;;;34.83;23.92;;;10.50;99.90;;;;;;4144675;28;20440;-63
2022/03/29 05:18:02;;;;;;;29.90;21.77;;;10.50;99.90;;;;;;4146801;28;20136;-63
2022/03/29 05:20:04;;;;;;;32.97;22.80;;;10.60;99.90;;;;;;4142558;28;20041;-65
2022/03/29 05:22:05;;;;;;;33.88;22.17;;;10.50;99.90;;;;;;4140797;28;20705;-64
2022/03/29 05:24:06;;;;;;;32.67;22.88;;;10.50;99.90;;;;;;4140620;28;20430;-64
2022/03/29 05:26:06;;;;;;;33.80;22.80;;;10.50;99.90;;;;;;4142205;28;20030;-64
2022/03/29 05:28:09;;;;;;;31.77;22.15;;;10.60;99.90;;;;;;4142178;28;20030;-64
2022/03/29 05:30:11;;;;;;;37.08;23.73;;;10.60;99.90;;;;;;4140895;28;20099;-64
2022/03/29 05:32:11;;;;;;;36.28;23.58;;;10.50;99.90;;;;;;4144278;28;20065;-63
2022/03/29 05:34:13;;;;;;;34.08;23.65;;;10.50;99.90;;;;;;4145733;28;20041;-64
2022/03/29 05:36:15;;;;;;;30.65;22.48;;;10.50;99.90;;;;;;4145635;28;20041;-65
2022/03/29 05:38:16;;;;;;;34.47;22.83;;;10.60;99.90;;;;;;4146899;28;20061;-65
2022/03/29 05:40:16;;;;;;;37.97;24.13;;;10.60;99.90;;;;;;4144839;28;20269;-65
2022/03/29 05:42:17;;;;;;;31.75;22.38;;;10.50;99.90;;;;;;4146192;28;20181;-65
2022/03/29 05:44:17;;;;;;;37.28;24.38;;;10.50;99.90;;;;;;4144312;28;20516;-65
2022/03/29 05:48:52;;;;;;;36.00;24.13;;;10.50;99.90;;;;;;4145163;28;20049;-64
2022/03/29 05:50:53;;;;;;;35.25;23.58;;;10.40;99.90;;;;;;4143744;28;20052;-65
2022/03/29 05:52:55;;;;;;;36.80;24.67;;;10.50;99.90;;;;;;4127727;28;20023;-64
2022/03/29 05:54:57;;;;;;;37.03;25.42;;;10.40;99.90;;;;;;4128476;28;20043;-64
2022/03/29 05:56:58;;;;;;;35.13;24.35;;;10.40;99.90;;;;;;4144996;28;20449;-64
2022/03/29 05:58:59;;;;;;;34.70;24.60;;;10.40;99.90;;;;;;4148481;28;20096;-64
2022/03/29 06:01:00;;;;;;;40.72;25.70;;;10.40;99.90;;;;;;4144352;28;20088;-64
2022/03/29 06:03:01;;;;;;;37.55;25.67;;;10.40;99.90;;;;;;4144630;28;20069;-64
2022/03/29 06:05:01;;;;;;;36.67;25.25;;;10.30;99.90;;;;;;4144005;28;22580;-64
2022/03/29 06:07:04;;;;;;;38.15;26.60;;;10.30;99.90;;;;;;4144623;28;20038;-64
2022/03/29 06:09:04;;;;;;;43.55;28.70;;;10.30;99.90;;;;;;4148375;28;20037;-64
2022/03/29 06:11:07;;;;;;;42.85;28.63;;;10.30;99.90;;;;;;4143571;28;20409;-64
2022/03/29 06:13:08;;;;;;;49.22;31.52;;;10.30;99.90;;;;;;4143862;28;20060;-64
2022/03/29 06:15:09;;;;;;;56.17;34.30;;;10.20;99.90;;;;;;4142643;28;20043;-65
2022/03/29 06:17:10;;;;;;;51.45;32.05;;;10.20;99.90;;;;;;4145454;28;20037;-64
2022/03/29 06:19:11;;;;;;;52.00;33.88;;;10.20;99.90;;;;;;4149256;28;20068;-64
2022/03/29 06:21:11;;;;;;;54.58;34.67;;;10.20;99.90;;;;;;4142261;28;20041;-64
2022/03/29 06:23:12;;;;;;;56.92;34.35;;;10.20;99.90;;;;;;4143869;28;20038;-64
2022/03/29 06:25:13;;;;;;;62.00;36.78;;;10.20;99.90;;;;;;4144931;28;20409;-65
2022/03/29 06:27:13;;;;;;;62.67;37.92;;;10.00;99.90;;;;;;4147889;28;20402;-65
2022/03/29 06:29:14;;;;;;;61.42;36.42;;;10.10;99.90;;;;;;4144327;28;20045;-64
2022/03/29 06:31:15;;;;;;;64.95;37.72;;;10.10;99.90;;;;;;4140668;28;20117;-64
2022/03/29 06:33:16;;;;;;;71.85;39.83;;;10.10;99.90;;;;;;4145678;28;20064;-65
2022/03/29 06:35:21;;;;;;;70.63;39.00;;;10.10;99.90;;;;;;4142441;28;20107;-64
2022/03/29 06:37:22;;;;;;;76.78;42.45;;;10.10;99.90;;;;;;4126466;28;20026;-64
2022/03/29 06:39:23;;;;;;;78.82;42.28;;;10.10;99.90;;;;;;4143392;28;20042;-64
2022/03/29 06:41:24;;;;;;;84.07;43.45;;;10.20;99.90;;;;;;4136029;28;20052;-64
2022/03/29 06:43:25;;;;;;;89.32;45.42;;;10.10;99.90;;;;;;4142613;28;20046;-64
2022/03/29 06:45:27;;;;;;;84.82;44.20;;;10.20;99.90;;;;;;4141971;28;20100;-65
2022/03/29 06:47:27;;;;;;;99.28;47.97;;;10.10;99.90;;;;;;4141602;28;20108;-64
2022/03/29 06:49:29;;;;;;;106.03;49.88;;;10.20;99.90;;;;;;4141771;28;20049;-64
2022/03/29 06:51:30;;;;;;;110.65;50.72;;;10.10;99.90;;;;;;4141588;28;20050;-64
2022/03/29 06:53:31;;;;;;;119.90;49.38;;;10.10;99.90;;;;;;4142922;28;20061;-64
2022/03/29 06:55:32;;;;;;;111.90;51.03;;;10.10;99.90;;;;;;4143277;28;20038;-64
2022/03/29 06:57:33;;;;;;;119.15;51.33;;;10.20;99.90;;;;;;4144890;28;20048;-65
2022/03/29 06:59:34;;;;;;;109.43;50.22;;;10.20;99.90;;;;;;4143165;28;20124;-64
2022/03/29 07:01:36;;;;;;;116.80;52.88;;;10.10;99.90;;;;;;4140859;28;20497;-64
2022/03/29 07:03:36;;;;;;;124.47;55.30;;;10.20;99.90;;;;;;4144258;28;20049;-64
2022/03/29 07:05:40;;;;;;;121.78;53.75;;;10.20;99.90;;;;;;4142163;28;20092;-64
2022/03/29 07:07:41;;;;;;;127.63;53.80;;;10.20;99.90;;;;;;4128555;28;20034;-64
2022/03/29 07:12:01;;;;;;;124.75;54.45;;;10.20;99.90;;;;;;4141763;28;20087;-64
2022/03/29 07:14:06;;;;;;;141.10;57.45;;;10.20;99.90;;;;;;4142235;28;20026;-65
2022/03/29 07:16:09;;;;;;;126.95;55.28;;;10.30;99.90;;;;;;4142169;28;20545;-64
2022/03/29 07:18:09;;;;;;;134.63;57.40;;;10.30;99.90;;;;;;4148032;28;20026;-64
2022/03/29 07:20:11;;;;;;;147.90;59.55;;;10.30;99.90;;;;;;4141946;28;20037;-65
2022/03/29 07:22:12;;;;;;;149.43;59.42;;;10.40;99.90;;;;;;4144015;28;20030;-64
2022/03/29 07:24:12;;;;;;;138.32;58.15;;;10.40;99.90;;;;;;4143052;28;20398;-64
2022/03/29 07:26:13;;;;;;;147.00;60.47;;;10.40;99.90;;;;;;4143860;28;20026;-64
2022/03/29 07:28:14;;;;;;;142.82;58.00;;;10.40;99.90;;;;;;4143834;28;20033;-64
2022/03/29 07:30:16;;;;;;;140.27;58.88;;;10.40;99.90;;;;;;4143280;28;20022;-64
2022/03/29 07:32:16;;;;;;;141.85;59.75;;;10.50;99.90;;;;;;4142901;28;20056;-65
2022/03/29 07:34:17;;;;;;;150.13;63.10;;;10.50;99.90;;;;;;4143414;28;20094;-65
2022/03/29 07:36:18;;;;;;;140.93;60.40;;;10.40;99.90;;;;;;4143431;28;20033;-64
2022/03/29 07:38:19;;;;;;;143.90;61.05;;;10.40;99.90;;;;;;4143691;28;20485;-64
2022/03/29 07:40:22;;;;;;;136.05;59.55;;;10.40;99.90;;;;;;4141167;28;20064;-64
2022/03/29 07:42:23;;;;;;;129.00;54.75;;;10.30;99.90;;;;;;4142514;28;20034;-64
2022/03/29 07:44:24;;;;;;;119.88;52.92;;;10.40;99.90;;;;;;4141663;28;20379;-64
2022/03/29 07:46:24;;;;;;;110.68;49.65;;;10.40;99.90;;;;;;4143026;28;20037;-64
2022/03/29 07:48:25;;;;;;;115.15;51.40;;;10.40;99.90;;;;;;4144179;28;20042;-64
2022/03/29 07:50:29;;;;;;;113.55;50.53;;;10.40;99.90;;;;;;4141712;28;20034;-64
2022/03/29 07:52:29;;;;;;;103.90;46.30;;;10.40;99.90;;;;;;4144786;28;20042;-64
2022/03/29 07:54:30;;;;;;;97.38;47.28;;;10.40;99.90;;;;;;4144147;28;20056;-64
2022/03/29 07:56:31;;;;;;;100.70;46.83;;;10.20;99.90;;;;;;4140730;28;20038;-64
2022/03/29 07:58:31;;;;;;;93.22;46.53;;;10.10;99.90;;;;;;4140291;28;20072;-63
2022/03/29 08:00:32;;;;;;;89.65;43.53;;;10.10;99.90;;;;;;4140643;28;20379;-64
2022/03/29 08:02:33;;;;;;;85.00;42.22;;;10.20;99.90;;;;;;4141623;28;20505;-64
2022/03/29 08:04:34;;;;;;;86.65;41.65;;;10.20;99.90;;;;;;4143769;28;20100;-64
2022/03/29 08:06:34;;;;;;;101.68;46.78;;;10.20;99.90;;;;;;4147107;28;20026;-64
2022/03/29 08:08:35;;;;;;;98.25;46.58;;;10.20;99.90;;;;;;4143421;28;20386;-64
2022/03/29 08:10:36;;;;;;;86.70;43.42;;;10.20;99.90;;;;;;4140719;28;21140;-64
2022/03/29 08:12:36;;;;;;;86.82;42.92;;;10.20;99.90;;;;;;4147624;28;20064;-64
2022/03/29 08:14:38;;;;;;;90.53;43.38;;;10.20;99.90;;;;;;4142336;28;20042;-64
2022/03/29 08:16:40;;;;;;;97.57;47.92;;;10.00;99.90;;;;;;4141354;28;20129;-64
2022/03/29 08:18:41;;;;;;;88.93;44.55;;;10.10;99.90;;;;;;4143165;28;20037;-64
2022/03/29 08:20:43;;;;;;;93.68;44.80;;;10.10;99.90;;;;;;4142268;28;20450;-64
2022/03/29 08:22:47;;;;;;;90.20;44.47;;;10.10;99.90;;;;;;4145677;28;20037;-65
2022/03/29 08:24:47;;;;;;;95.90;46.95;;;10.10;99.90;;;;;;4124920;28;20349;-65
2022/03/29 08:26:50;;;;;;;87.13;43.58;;;10.10;99.90;;;;;;4142417;28;20030;-64
2022/03/29 08:28:50;;;;;;;80.30;41.03;;;10.10;99.90;;;;;;4142959;28;20038;-64
2022/03/29 08:30:52;;;;;;;81.03;42.13;;;10.00;99.90;;;;;;4145423;28;20057;-64
2022/03/29 08:32:54;;;;;;;74.85;41.60;;;10.10;99.90;;;;;;4145224;28;20453;-64
2022/03/29 08:34:54;;;;;;;83.57;42.30;;;10.10;99.90;;;;;;4149403;28;20034;-64
2022/03/29 08:36:55;;;;;;;77.13;41.17;;;10.10;99.90;;;;;;4146257;28;20041;-64
2022/03/29 08:38:56;;;;;;;78.30;42.08;;;10.10;99.90;;;;;;4145776;28;20034;-64
2022/03/29 08:40:58;;;;;;;71.72;38.38;;;10.20;99.90;;;;;;4142554;28;20027;-64
2022/03/29 08:43:00;;;;;;;;;;;10.20;99.90;;;;;;4143562;28;20468;-64
2022/03/29 08:45:07;;;;;;;74.60;38.83;;;10.10;99.90;;;;;;4143758;28;19925;-64
2022/03/29 08:47:09;;;;;;;88.53;43.97;;;10.20;99.90;;;;;;4143589;28;20042;-64
2022/03/29 08:49:10;;;;;;;;;;;10.20;99.90;;;;;;4143336;28;20061;-64
2022/03/29 08:51:11;;;;;;;94.70;45.47;;;10.10;99.90;;;;;;4143661;28;19910;-64
2022/03/29 08:53:14;;;;;;;103.45;49.75;;;10.10;99.90;;;;;;4142809;28;20068;-67
2022/03/29 08:55:14;;;;;;;132.05;57.75;;;10.10;99.90;;;;;;4143284;28;20030;-64
2022/03/29 08:57:15;;;;;;;118.00;53.80;;;10.00;99.90;;;;;;4141838;28;20037;-64
2022/03/29 08:59:16;;;;;;;115.18;54.97;;;10.10;99.90;;;;;;4141618;28;20046;-64
2022/03/29 09:01:21;;;;;;;137.95;62.88;;;10.10;99.90;;;;;;4143142;28;20812;-66
2022/03/29 09:03:21;;;;;;;144.52;65.32;;;10.10;99.90;;;;;;4141977;28;20165;-64
2022/03/29 09:05:24;;;;;;;133.23;60.95;;;9.90;99.90;;;;;;4142880;28;20061;-64
2022/03/29 09:07:24;;;;;;;120.28;56.25;;;10.00;99.90;;;;;;4142482;28;20045;-64
2022/03/29 09:09:33;;;;;;;112.72;53.88;;;10.10;99.90;;;;;;4143366;28;20397;-64
2022/03/29 09:11:40;;;;;;;109.00;52.33;;;10.10;99.90;;;;;;4142268;28;20064;-64
2022/03/29 09:13:41;;;;;;;105.95;51.63;;;10.00;99.90;;;;;;4142713;28;20030;-64
2022/03/29 09:15:42;;;;;;;96.80;49.35;;;10.10;99.90;;;;;;4142323;28;20088;-64
2022/03/29 09:17:48;;;;;;;119.50;56.15;;;10.00;99.90;;;;;;4142970;28;20041;-64
2022/03/29 09:19:51;;;;;;;195.02;80.90;;;10.10;99.90;;;;;;4146620;28;20046;-65
2022/03/29 09:21:54;;;;;;;192.10;81.57;;;9.30;99.90;;;;;;4142085;28;20443;-64
2022/03/29 09:24:06;;;;;;;185.23;77.95;;;9.10;99.90;;;;;;4143379;28;20468;-64
2022/03/29 09:26:24;;;;;;;158.40;70.90;;;9.10;99.90;;;;;;4142931;28;20030;-65
2022/03/29 09:28:31;;;;;;;155.43;65.90;;;9.20;99.90;;;;;;4143017;28;20052;-64
2022/03/29 09:30:42;;;;;;;158.52;68.20;;;9.50;99.90;;;;;;4142609;28;20462;-64
2022/03/29 09:32:51;;;;;;;182.98;75.30;;;9.50;99.90;;;;;;4141684;28;20030;-64
2022/03/29 09:35:05;;;;;;;186.80;78.13;;;9.50;99.90;;;;;;4144010;28;20045;-65
2022/03/29 09:37:06;;;;;;;168.05;70.78;;;9.20;99.90;;;;;;4142802;28;20042;-64
2022/03/29 09:39:07;;;;;;;151.32;66.30;;;9.40;99.90;;;;;;4142975;28;20030;-64
2022/03/29 09:41:28;;;;;;;162.20;68.78;;;9.50;99.90;;;;;;4142854;28;20025;-63
2022/03/29 09:43:31;;;;;;;151.27;67.13;;;9.70;99.90;;;;;;4144117;28;20042;-63
2022/03/29 09:46:01;;;;;;;155.70;68.00;;;9.70;99.90;;;;;;4148845;28;20080;-64
2022/03/29 09:48:26;;;;;;;124.15;58.85;;;9.80;99.90;;;;;;4134020;28;20057;-64
2022/03/29 09:50:26;;;;;;;133.73;58.22;;;10.00;99.90;;;;;;4142433;28;20125;-64
2022/03/29 09:52:29;;;;;;;140.80;61.38;;;10.00;99.90;;;;;;4148783;28;20618;-64
2022/03/29 09:54:30;;;;;;;141.18;60.80;;;10.10;99.90;;;;;;4142962;28;20446;-64
2022/03/29 09:56:31;;;;;;;119.63;57.47;;;10.10;99.90;;;;;;4143648;28;20041;-70
2022/03/29 09:58:31;;;;;;;122.00;56.10;;;10.20;99.90;;;;;;4144831;28;20034;-64
2022/03/29 10:00:36;;;;;;;124.80;56.78;;;10.20;99.90;;;;;;4143018;28;20437;-64
2022/03/29 10:02:40;;;;;;;102.03;51.38;;;10.20;99.90;;;;;;4146350;28;20493;-64
2022/03/29 10:04:42;;;;;;;115.70;55.30;;;10.20;99.90;;;;;;4141497;28;20053;-64
2022/03/29 10:06:46;;;;;;;132.50;58.53;;;10.30;99.90;;;;;;4141470;28;20038;-64
2022/03/29 10:11:09;;;;;;;123.05;57.20;;;10.40;99.90;;;;;;4141249;28;20444;-65
2022/03/29 10:13:11;;;;;;;120.43;58.25;;;10.40;99.90;;;;;;4142427;28;20026;-65
2022/03/29 10:15:12;;;;;;;115.32;55.80;;;10.40;99.90;;;;;;4140007;28;20053;-64
2022/03/29 10:17:15;;;;;;;111.45;53.97;;;10.40;99.90;;;;;;4142662;28;20168;-64
2022/03/29 10:19:17;;;;;;;118.55;55.13;;;10.50;99.90;;;;;;4141370;28;20061;-66
2022/03/29 10:21:18;;;;;;;114.80;55.97;;;10.50;99.90;;;;;;4139595;28;20474;-65
2022/03/29 10:23:22;;;;;;;115.15;55.95;;;10.50;99.90;;;;;;4143900;28;20106;-64